San Diego (SAN/KSAN)

Information

Location
San Diego, CA
Local Time
17:15 / 5:15 pm
GMT Time
00:15 / 12:15 am
Gates
Unassigned
No FAA reported delays
METAR KSAN 222351Z 27012KT 10SM BKN021 BKN035 BKN200 19/11 A3002 RMK AO2 SLP164 T01890106 10194 20167 56009
TAF KSAN 222320Z 2300/2406 26010KT P6SM VCSH SCT015 SCT025 BKN035 FM230300 28010KT P6SM -SHRA VCTS SCT015 BKN025CB OVC035 FM230700 29011KT P6SM VCSH SCT015 SCT025 OVC035 FM231500 29006KT P6SM SCT025 SCT035 FM231900 29012G18KT P6SM SCT040 FM240200 29005KT P6SM FEW040
  • No charts available